createdAt,value
2022-12-16T00:00:10.604Z,-6.90
2022-12-16T00:02:37.996Z,-6.90
2022-12-16T00:05:05.518Z,-6.80
2022-12-16T00:07:32.468Z,-6.90
2022-12-16T00:09:59.399Z,-6.80
2022-12-16T00:12:27.149Z,-6.80
2022-12-16T00:14:54.172Z,-6.80
2022-12-16T00:17:22.153Z,-6.90
2022-12-16T00:19:49.138Z,-6.90
2022-12-16T00:22:16.197Z,-6.90
2022-12-16T00:24:44.406Z,-7.00
2022-12-16T00:27:11.433Z,-7.00
2022-12-16T00:29:38.557Z,-7.00
2022-12-16T00:32:06.568Z,-7.00
2022-12-16T00:34:33.730Z,-7.00
2022-12-16T00:37:00.674Z,-7.10
2022-12-16T00:39:27.689Z,-7.20
2022-12-16T00:41:54.707Z,-7.30
2022-12-16T00:44:21.915Z,-7.40
2022-12-16T00:46:49.080Z,-7.60
2022-12-16T00:49:15.989Z,-7.60
2022-12-16T00:51:44.051Z,-7.70
2022-12-16T00:54:11.243Z,-7.80
2022-12-16T00:56:38.385Z,-7.90
2022-12-16T00:59:05.666Z,-8.00
2022-12-16T01:01:33.228Z,-8.00
2022-12-16T01:04:00.416Z,-8.00
2022-12-16T01:06:27.710Z,-8.10
2022-12-16T01:08:55.686Z,-8.10
2022-12-16T01:11:22.605Z,-8.00
2022-12-16T01:13:52.770Z,-8.00
2022-12-16T01:16:22.388Z,-8.10
2022-12-16T01:18:49.424Z,-8.20
2022-12-16T01:21:16.874Z,-8.10
2022-12-16T01:23:43.853Z,-8.10
2022-12-16T01:26:18.031Z,-8.10
2022-12-16T01:28:48.664Z,-8.10
2022-12-16T01:31:18.566Z,-8.10
2022-12-16T01:33:45.627Z,-8.20
2022-12-16T01:36:13.130Z,-8.20
2022-12-16T01:38:43.301Z,-8.30
2022-12-16T01:41:11.378Z,-8.40
2022-12-16T01:43:40.104Z,-8.40
2022-12-16T01:46:21.134Z,-8.40
2022-12-16T01:49:04.136Z,-8.40
2022-12-16T01:51:38.470Z,-8.30
2022-12-16T01:54:18.670Z,-8.30
2022-12-16T01:56:52.250Z,-8.20
2022-12-16T01:59:20.400Z,-8.00
2022-12-16T02:01:47.465Z,-8.00
2022-12-16T02:04:14.497Z,-8.00
2022-12-16T02:06:41.543Z,-8.00
2022-12-16T02:09:11.725Z,-7.90
2022-12-16T02:12:09.226Z,-8.00
2022-12-16T02:15:17.314Z,-8.00
2022-12-16T02:18:10.190Z,-7.90
2022-12-16T02:21:32.970Z,-7.80
2022-12-16T02:24:23.120Z,-7.70
2022-12-16T02:27:18.347Z,-7.80
2022-12-16T02:30:07.361Z,-8.00
2022-12-16T02:49:50.953Z,-8.30
2022-12-16T02:52:26.721Z,-8.30
2022-12-16T02:58:18.339Z,-8.30
2022-12-16T03:01:09.702Z,-8.30
2022-12-16T03:04:01.624Z,-8.40
2022-12-16T03:06:31.730Z,-8.50
2022-12-16T03:09:01.976Z,-8.50
2022-12-16T03:11:31.482Z,-8.50
2022-12-16T03:14:00.369Z,-8.60
2022-12-16T03:16:32.740Z,-8.60
2022-12-16T03:19:06.934Z,-8.50
2022-12-16T03:21:43.425Z,-8.50
2022-12-16T03:24:13.932Z,-8.40
2022-12-16T03:26:58.203Z,-8.20
2022-12-16T03:29:40.639Z,-8.30
2022-12-16T03:32:43.704Z,-8.40
2022-12-16T03:35:42.610Z,-8.50
2022-12-16T03:38:11.767Z,-8.70
2022-12-16T03:40:42.071Z,-8.80
2022-12-16T03:43:12.651Z,-8.90
2022-12-16T03:45:41.880Z,-9.00
2022-12-16T03:48:11.013Z,-9.00
2022-12-16T03:50:39.484Z,-8.80
2022-12-16T03:53:07.393Z,-8.70
2022-12-16T03:55:34.686Z,-8.70
2022-12-16T03:58:01.650Z,-8.70
2022-12-16T04:00:28.676Z,-8.70
2022-12-16T04:02:55.833Z,-8.80
2022-12-16T04:05:23.436Z,-8.90
2022-12-16T04:07:50.861Z,-9.00
2022-12-16T04:10:37.843Z,-9.10
2022-12-16T04:13:23.330Z,-9.10
2022-12-16T04:16:19.637Z,-9.20
2022-12-16T04:19:06.725Z,-9.10
2022-12-16T04:21:53.098Z,-9.20
2022-12-16T04:24:29.088Z,-9.30
2022-12-16T04:27:15.870Z,-9.30
2022-12-16T04:30:02.699Z,-9.40
2022-12-16T04:32:53.697Z,-9.40
2022-12-16T04:35:39.272Z,-9.40
2022-12-16T04:38:24.947Z,-9.40
2022-12-16T04:41:10.554Z,-9.30
2022-12-16T04:43:56.379Z,-9.30
2022-12-16T04:46:42.500Z,-9.40
2022-12-16T04:49:28.317Z,-9.40
2022-12-16T04:52:13.909Z,-9.20
2022-12-16T04:54:59.224Z,-9.10
2022-12-16T04:57:45.792Z,-9.00
2022-12-16T05:00:31.650Z,-8.80
2022-12-16T05:03:17.559Z,-8.80
2022-12-16T05:06:03.071Z,-8.90
2022-12-16T05:08:48.309Z,-9.00
2022-12-16T05:11:34.315Z,-9.20
2022-12-16T05:14:30.560Z,-9.20
2022-12-16T05:17:16.047Z,-9.00
2022-12-16T05:20:01.495Z,-8.90
2022-12-16T05:22:47.009Z,-8.80
2022-12-16T05:25:32.559Z,-8.80
2022-12-16T05:28:18.075Z,-8.90
2022-12-16T05:31:03.992Z,-8.90
2022-12-16T05:33:49.449Z,-8.90
2022-12-16T05:36:35.154Z,-9.00
2022-12-16T05:39:20.802Z,-9.10
2022-12-16T05:42:06.444Z,-9.20
2022-12-16T05:44:52.090Z,-9.20
2022-12-16T05:47:37.511Z,-9.30
2022-12-16T05:50:24.197Z,-9.10
2022-12-16T05:53:14.302Z,-9.00
2022-12-16T05:56:00.117Z,-8.90
2022-12-16T05:58:46.174Z,-8.90
2022-12-16T06:01:32.042Z,-8.90
2022-12-16T06:04:18.391Z,-9.00
2022-12-16T06:07:04.226Z,-9.10
2022-12-16T06:09:56.059Z,-9.10
2022-12-16T06:12:41.575Z,-9.10
2022-12-16T06:15:27.456Z,-9.20
2022-12-16T06:18:12.803Z,-9.20
2022-12-16T06:20:58.418Z,-9.30
2022-12-16T06:23:43.807Z,-9.30
2022-12-16T06:26:29.582Z,-9.30
2022-12-16T06:29:14.912Z,-9.30
2022-12-16T06:32:00.771Z,-9.30
2022-12-16T06:34:46.290Z,-9.40
2022-12-16T06:37:31.945Z,-9.40
2022-12-16T06:40:19.352Z,-9.40
2022-12-16T06:43:04.915Z,-9.30
2022-12-16T06:45:50.517Z,-9.30
2022-12-16T06:48:36.199Z,-9.30
2022-12-16T06:51:21.886Z,-9.30
2022-12-16T06:54:07.164Z,-9.30
2022-12-16T06:56:52.745Z,-9.40
2022-12-16T06:59:38.227Z,-9.40
2022-12-16T07:02:34.476Z,-9.40
2022-12-16T07:05:22.980Z,-9.50
2022-12-16T07:08:09.664Z,-9.30
2022-12-16T07:11:01.224Z,-9.10
2022-12-16T07:13:54.508Z,-9.00
2022-12-16T07:16:40.067Z,-8.90
2022-12-16T07:19:25.319Z,-8.90
2022-12-16T07:22:11.316Z,-8.80
2022-12-16T07:24:56.825Z,-8.60
2022-12-16T07:27:42.069Z,-8.50
2022-12-16T07:30:28.355Z,-8.60
2022-12-16T07:33:14.074Z,-8.70
2022-12-16T07:36:02.353Z,-8.80
2022-12-16T07:39:10.131Z,-8.90
2022-12-16T07:44:55.333Z,-9.00
2022-12-16T07:47:40.924Z,-8.90
2022-12-16T07:50:26.767Z,-8.60
2022-12-16T07:53:19.011Z,-8.20
2022-12-16T07:56:04.827Z,-7.80
2022-12-16T07:58:50.526Z,-7.30
2022-12-16T08:01:36.071Z,-6.90
2022-12-16T08:04:21.977Z,-6.50
2022-12-16T08:07:07.351Z,-6.00
2022-12-16T08:09:53.051Z,-5.50
2022-12-16T08:12:38.619Z,-5.10
2022-12-16T08:15:25.385Z,-4.60
2022-12-16T08:18:16.608Z,-4.50
2022-12-16T08:21:14.494Z,-4.30
2022-12-16T08:24:01.567Z,-4.00
2022-12-16T08:26:47.174Z,-3.80
2022-12-16T08:29:44.170Z,-3.50
2022-12-16T08:32:30.762Z,-3.20
2022-12-16T08:35:16.325Z,-2.90
2022-12-16T08:38:02.794Z,-2.70
2022-12-16T08:40:48.197Z,-2.50
2022-12-16T08:43:34.466Z,-2.40
2022-12-16T08:46:20.217Z,-2.40
2022-12-16T08:49:05.584Z,-2.30
2022-12-16T08:51:51.058Z,-2.30
2022-12-16T08:54:36.373Z,-2.10
2022-12-16T08:57:23.032Z,-1.60
2022-12-16T09:00:11.007Z,-1.30
2022-12-16T09:02:56.585Z,-1.20
2022-12-16T09:05:42.087Z,-1.00
2022-12-16T09:08:27.769Z,-0.80
2022-12-16T09:11:13.053Z,-0.70
2022-12-16T09:13:58.632Z,-0.70
2022-12-16T09:16:44.026Z,-0.60
2022-12-16T09:19:29.563Z,-0.60
2022-12-16T09:22:15.300Z,-0.60
2022-12-16T09:25:00.705Z,-0.30
2022-12-16T09:27:46.360Z,-0.30
2022-12-16T09:30:31.752Z,-0.30
2022-12-16T09:33:17.628Z,-0.20
2022-12-16T09:36:02.965Z,-0.10
2022-12-16T09:38:48.182Z,0.00
2022-12-16T09:41:59.978Z,-0.10
2022-12-16T09:45:25.632Z,-0.10
2022-12-16T09:48:40.160Z,0.00
2022-12-16T09:51:28.420Z,0.20
2022-12-16T09:54:32.581Z,0.20
2022-12-16T09:57:24.810Z,0.20
2022-12-16T10:00:40.550Z,0.00
2022-12-16T10:03:42.613Z,-0.20
2022-12-16T10:07:11.696Z,-0.30
2022-12-16T10:10:06.963Z,-0.70
2022-12-16T10:13:22.506Z,-0.90
2022-12-16T10:16:30.523Z,-1.00
2022-12-16T10:20:09.098Z,-1.10
2022-12-16T10:23:04.570Z,-1.30
2022-12-16T10:26:09.595Z,-1.50
2022-12-16T10:29:06.962Z,-1.50
2022-12-16T10:31:55.716Z,-1.50
2022-12-16T10:34:49.581Z,-1.60
2022-12-16T10:37:53.994Z,-1.80
2022-12-16T10:40:43.980Z,-1.80
2022-12-16T10:43:49.836Z,-1.90
2022-12-16T10:46:41.282Z,-2.00
2022-12-16T10:49:33.422Z,-2.00
2022-12-16T10:52:18.740Z,-2.10
2022-12-16T10:55:38.401Z,-2.20
2022-12-16T10:58:52.514Z,-2.10
2022-12-16T11:01:43.708Z,-2.10
2022-12-16T11:04:49.411Z,-2.10
2022-12-16T11:08:11.931Z,-2.10
2022-12-16T11:11:05.333Z,-2.10
2022-12-16T11:13:53.338Z,-2.10
2022-12-16T11:16:48.958Z,-2.10
2022-12-16T11:19:43.671Z,-2.10
2022-12-16T11:22:36.361Z,-2.00
2022-12-16T11:25:40.883Z,-2.00
2022-12-16T11:28:36.594Z,-2.00
2022-12-16T11:31:32.094Z,-1.90
2022-12-16T11:34:19.358Z,-1.90
2022-12-16T11:37:10.343Z,-1.90
2022-12-16T11:39:57.503Z,-1.90
2022-12-16T11:42:50.994Z,-1.90
2022-12-16T11:45:56.189Z,-1.90
2022-12-16T11:49:24.793Z,-1.80
2022-12-16T11:52:44.690Z,-1.80
2022-12-16T11:56:05.507Z,-1.80
2022-12-16T11:59:04.114Z,-1.70
2022-12-16T12:01:58.337Z,-1.70
2022-12-16T12:04:44.015Z,-1.60
2022-12-16T12:07:50.139Z,-1.60
2022-12-16T12:11:04.457Z,-1.50
2022-12-16T12:14:00.433Z,-1.50
2022-12-16T12:17:02.642Z,-1.50
2022-12-16T12:20:08.805Z,-1.40
2022-12-16T12:22:57.232Z,-1.30
2022-12-16T12:26:17.409Z,-1.30
2022-12-16T12:29:56.497Z,-1.20
2022-12-16T12:33:12.230Z,-1.10
2022-12-16T12:36:27.615Z,-1.10
2022-12-16T12:39:38.965Z,-1.10
2022-12-16T12:42:55.033Z,-1.00
2022-12-16T12:46:28.516Z,-1.00
2022-12-16T12:49:24.390Z,-1.00
2022-12-16T12:52:28.708Z,-0.90
2022-12-16T12:55:47.485Z,-0.90
2022-12-16T12:58:33.964Z,-0.80
2022-12-16T13:01:21.988Z,-0.80
2022-12-16T13:04:35.623Z,-0.80
2022-12-16T13:07:22.007Z,-0.70
2022-12-16T13:10:53.413Z,-0.70
2022-12-16T13:13:52.923Z,-0.60
2022-12-16T13:17:25.673Z,-0.60
2022-12-16T13:20:14.739Z,-0.60
2022-12-16T13:23:01.851Z,-0.60
2022-12-16T13:26:10.737Z,-0.60
2022-12-16T13:29:20.043Z,-0.60
2022-12-16T13:32:47.324Z,-0.60
2022-12-16T13:35:37.545Z,-0.60
2022-12-16T13:38:40.426Z,-0.60
2022-12-16T13:42:05.777Z,-0.50
2022-12-16T13:45:02.907Z,-0.60
2022-12-16T13:48:17.931Z,-0.50
2022-12-16T13:51:18.105Z,-0.50
2022-12-16T13:54:10.108Z,-0.50
2022-12-16T13:57:02.380Z,-0.50
2022-12-16T14:00:11.039Z,-0.50
2022-12-16T14:02:59.432Z,-0.60
2022-12-16T14:05:48.418Z,-0.50
2022-12-16T14:08:39.978Z,-0.50
2022-12-16T14:12:07.130Z,-0.50
2022-12-16T14:15:10.130Z,-0.60
2022-12-16T14:18:23.357Z,-0.70
2022-12-16T14:21:17.869Z,-0.80
2022-12-16T14:24:10.346Z,-0.80
2022-12-16T14:26:56.989Z,-0.90
2022-12-16T14:29:50.882Z,-0.90
2022-12-16T14:32:46.413Z,-1.00
2022-12-16T14:35:38.926Z,-1.10
2022-12-16T14:38:48.708Z,-1.10
2022-12-16T14:41:42.984Z,-1.20
2022-12-16T14:44:56.493Z,-1.40
2022-12-16T14:47:43.536Z,-1.50
2022-12-16T14:50:55.441Z,-1.60
2022-12-16T14:53:43.063Z,-1.60
2022-12-16T14:56:56.714Z,-1.50
2022-12-16T14:59:42.132Z,-1.00
2022-12-16T15:03:06.366Z,-0.70
2022-12-16T15:05:56.250Z,-0.60
2022-12-16T15:08:58.672Z,-0.80
2022-12-16T15:11:45.809Z,-1.20
2022-12-16T15:14:35.965Z,-1.50
2022-12-16T15:17:21.729Z,-1.70
2022-12-16T15:20:10.258Z,-1.80
2022-12-16T15:22:56.352Z,-2.00
2022-12-16T15:25:44.164Z,-2.10
2022-12-16T15:28:43.529Z,-2.30
2022-12-16T15:31:33.563Z,-2.50
2022-12-16T15:34:48.274Z,-2.70
2022-12-16T15:37:59.171Z,-2.80
2022-12-16T15:40:50.561Z,-2.90
2022-12-16T15:43:50.874Z,-2.90
2022-12-16T15:46:44.590Z,-2.90
2022-12-16T15:50:09.248Z,-2.90
2022-12-16T15:53:03.740Z,-2.80
2022-12-16T15:56:04.118Z,-2.90
2022-12-16T15:58:54.860Z,-2.80
2022-12-16T16:01:43.535Z,-2.70
2022-12-16T16:04:44.258Z,-2.50
2022-12-16T16:07:41.400Z,-2.40
2022-12-16T16:10:44.678Z,-2.40
2022-12-16T16:13:30.454Z,-2.50
2022-12-16T16:16:17.565Z,-2.50
2022-12-16T16:19:03.225Z,-2.60
2022-12-16T16:21:49.398Z,-2.60
2022-12-16T16:24:35.286Z,-2.70
2022-12-16T16:27:30.686Z,-2.80
2022-12-16T16:30:17.089Z,-2.90
2022-12-16T16:33:03.155Z,-3.00
2022-12-16T16:35:51.334Z,-3.20
2022-12-16T16:38:37.076Z,-3.20
2022-12-16T16:41:39.507Z,-3.20
2022-12-16T16:44:45.533Z,-3.30
2022-12-16T16:47:36.994Z,-3.40
2022-12-16T16:50:23.022Z,-3.50
2022-12-16T16:53:08.446Z,-3.50
2022-12-16T16:58:53.257Z,-3.60
2022-12-16T17:01:39.067Z,-3.50
2022-12-16T17:04:25.547Z,-3.40
2022-12-16T17:07:11.182Z,-3.50
2022-12-16T17:09:56.796Z,-3.60
2022-12-16T17:12:48.060Z,-3.60
2022-12-16T17:15:53.112Z,-3.50
2022-12-16T17:21:38.794Z,-3.50
2022-12-16T17:24:24.483Z,-3.50
2022-12-16T17:27:09.894Z,-3.60
2022-12-16T17:29:55.149Z,-3.50
2022-12-16T17:32:40.808Z,-3.60
2022-12-16T17:35:29.720Z,-3.60
2022-12-16T17:38:14.877Z,-3.60
2022-12-16T17:41:00.445Z,-3.70
2022-12-16T17:43:46.029Z,-3.70
2022-12-16T17:46:33.895Z,-3.80
2022-12-16T17:49:19.429Z,-4.00
2022-12-16T17:52:04.768Z,-4.20
2022-12-16T17:54:50.518Z,-4.30
2022-12-16T17:57:36.203Z,-4.40
2022-12-16T18:00:23.760Z,-4.60
2022-12-16T18:03:09.224Z,-4.60
2022-12-16T18:05:55.174Z,-4.50
2022-12-16T18:08:40.689Z,-4.50
2022-12-16T18:11:26.215Z,-4.50
2022-12-16T18:14:11.803Z,-4.60
2022-12-16T18:17:17.053Z,-4.60
2022-12-16T18:20:02.537Z,-4.70
2022-12-16T18:22:48.013Z,-4.70
2022-12-16T18:25:34.196Z,-4.70
2022-12-16T18:28:19.749Z,-4.80
2022-12-16T18:31:05.323Z,-4.80
2022-12-16T18:33:51.468Z,-4.90
2022-12-16T18:36:36.876Z,-5.00
2022-12-16T18:39:22.850Z,-5.00
2022-12-16T18:42:08.243Z,-5.00
2022-12-16T18:44:59.215Z,-5.00
2022-12-16T18:47:46.563Z,-4.80
2022-12-16T18:50:37.562Z,-4.70
2022-12-16T18:53:23.769Z,-4.70
2022-12-16T18:56:22.495Z,-4.90
2022-12-16T18:59:08.138Z,-5.10
2022-12-16T19:01:53.861Z,-5.30
2022-12-16T19:04:40.606Z,-5.40
2022-12-16T19:07:26.004Z,-5.50
2022-12-16T19:10:11.526Z,-5.60
2022-12-16T19:12:57.370Z,-5.50
2022-12-16T19:15:42.979Z,-5.50
2022-12-16T19:18:30.636Z,-5.60
2022-12-16T19:21:16.389Z,-5.70
2022-12-16T19:24:03.270Z,-5.80
2022-12-16T19:26:48.617Z,-5.90
2022-12-16T19:29:34.336Z,-5.90
2022-12-16T19:32:20.275Z,-6.00
2022-12-16T19:35:06.158Z,-6.10
2022-12-16T19:37:53.646Z,-6.20
2022-12-16T19:40:39.214Z,-6.00
2022-12-16T19:43:24.642Z,-6.00
2022-12-16T19:46:14.702Z,-6.10
2022-12-16T19:49:00.410Z,-6.10
2022-12-16T19:51:45.954Z,-5.90
2022-12-16T19:54:31.722Z,-5.80
2022-12-16T19:57:17.351Z,-5.70
2022-12-16T20:00:02.724Z,-5.70
2022-12-16T20:02:48.327Z,-5.80
2022-12-16T20:05:34.336Z,-5.80
2022-12-16T20:08:19.794Z,-5.90
2022-12-16T20:11:05.106Z,-6.00
2022-12-16T20:13:56.182Z,-5.90
2022-12-16T20:16:41.737Z,-6.00
2022-12-16T20:19:27.020Z,-6.00
2022-12-16T20:22:16.441Z,-6.10
2022-12-16T20:25:02.057Z,-6.10
2022-12-16T20:27:47.521Z,-6.20
2022-12-16T20:30:33.827Z,-6.30
2022-12-16T20:33:21.935Z,-6.40
2022-12-16T20:36:15.837Z,-6.50
2022-12-16T20:39:01.388Z,-6.40
2022-12-16T20:41:46.909Z,-6.30
2022-12-16T20:44:32.686Z,-6.20
2022-12-16T20:47:18.093Z,-6.20
2022-12-16T20:50:03.888Z,-6.20
2022-12-16T20:52:49.274Z,-6.10
2022-12-16T20:55:38.198Z,-6.10
2022-12-16T20:58:23.803Z,-6.20
2022-12-16T21:01:13.761Z,-6.30
2022-12-16T21:03:59.566Z,-6.30
2022-12-16T21:06:45.152Z,-6.40
2022-12-16T21:09:30.820Z,-6.60
2022-12-16T21:12:16.377Z,-6.60
2022-12-16T21:15:01.816Z,-6.70
2022-12-16T21:17:47.163Z,-6.70
2022-12-16T21:20:33.558Z,-6.70
2022-12-16T21:23:25.294Z,-6.90
2022-12-16T21:26:10.978Z,-6.90
2022-12-16T21:28:56.437Z,-7.00
2022-12-16T21:31:44.391Z,-7.10
2022-12-16T21:34:30.124Z,-7.10
2022-12-16T21:37:15.722Z,-7.20
2022-12-16T21:40:01.143Z,-7.20
2022-12-16T21:42:46.501Z,-7.30
2022-12-16T21:45:32.451Z,-7.30
2022-12-16T21:48:17.917Z,-7.30
2022-12-16T21:51:12.479Z,-7.30
2022-12-16T21:53:59.325Z,-7.30
2022-12-16T21:56:49.503Z,-7.20
2022-12-16T21:59:35.005Z,-7.10
2022-12-16T22:02:20.613Z,-7.00
2022-12-16T22:05:06.152Z,-6.90
2022-12-16T22:07:52.078Z,-7.00
2022-12-16T22:10:38.601Z,-7.10
2022-12-16T22:13:23.963Z,-7.30
2022-12-16T22:16:17.030Z,-7.30
2022-12-16T22:19:02.797Z,-7.20
2022-12-16T22:21:51.744Z,-7.10
2022-12-16T22:24:37.110Z,-7.10
2022-12-16T22:27:22.514Z,-6.90
2022-12-16T22:30:08.609Z,-6.70
2022-12-16T22:36:01.488Z,-6.30
2022-12-16T22:38:56.295Z,-6.20
2022-12-16T22:41:42.151Z,-6.20
2022-12-16T22:44:28.584Z,-6.10
2022-12-16T22:47:14.104Z,-6.00
2022-12-16T22:50:00.640Z,-6.00
2022-12-16T22:52:46.574Z,-5.90
2022-12-16T22:55:32.565Z,-5.90
2022-12-16T22:58:18.114Z,-5.90
2022-12-16T23:01:03.916Z,-6.00
2022-12-16T23:03:49.595Z,-6.00
2022-12-16T23:06:35.320Z,-6.00
2022-12-16T23:09:21.022Z,-6.10
2022-12-16T23:12:06.741Z,-6.10
2022-12-16T23:14:52.457Z,-6.20
2022-12-16T23:17:39.194Z,-6.20
2022-12-16T23:20:25.593Z,-6.20
2022-12-16T23:23:15.242Z,-6.30
2022-12-16T23:26:02.485Z,-6.30
2022-12-16T23:31:53.062Z,-6.30
2022-12-16T23:34:45.690Z,-6.40
2022-12-16T23:37:32.203Z,-6.40
2022-12-16T23:40:17.667Z,-6.30
2022-12-16T23:43:03.061Z,-6.40
2022-12-16T23:45:48.689Z,-6.40
2022-12-16T23:48:34.378Z,-6.40
2022-12-16T23:51:20.168Z,-6.50
2022-12-16T23:54:06.676Z,-6.40
2022-12-16T23:56:52.038Z,-6.40
2022-12-16T23:59:37.545Z,-6.40
